sensor_id;sensor_type;location;lat;lon;timestamp;temperature;humidity
19258;DHT22;9763;48.780;9.212;2023-07-31T00:01:56;20.70;73.50
19258;DHT22;9763;48.780;9.212;2023-07-31T00:05:21;20.70;73.40
19258;DHT22;9763;48.780;9.212;2023-07-31T00:08:45;20.70;73.40
19258;DHT22;9763;48.780;9.212;2023-07-31T00:12:10;20.70;73.00
19258;DHT22;9763;48.780;9.212;2023-07-31T00:15:34;20.60;73.20
19258;DHT22;9763;48.780;9.212;2023-07-31T00:18:58;20.60;73.40
19258;DHT22;9763;48.780;9.212;2023-07-31T00:22:21;20.50;73.30
19258;DHT22;9763;48.780;9.212;2023-07-31T00:25:46;20.50;73.20
19258;DHT22;9763;48.780;9.212;2023-07-31T00:29:10;20.50;73.20
19258;DHT22;9763;48.780;9.212;2023-07-31T00:32:33;20.50;73.40
19258;DHT22;9763;48.780;9.212;2023-07-31T00:35:57;20.40;73.40
19258;DHT22;9763;48.780;9.212;2023-07-31T00:39:20;20.50;73.60
19258;DHT22;9763;48.780;9.212;2023-07-31T00:42:45;20.40;73.40
19258;DHT22;9763;48.780;9.212;2023-07-31T00:46:09;20.30;73.40
19258;DHT22;9763;48.780;9.212;2023-07-31T00:49:33;20.40;73.50
19258;DHT22;9763;48.780;9.212;2023-07-31T00:52:57;20.30;73.50
19258;DHT22;9763;48.780;9.212;2023-07-31T00:56:21;20.30;73.50
19258;DHT22;9763;48.780;9.212;2023-07-31T00:59:46;20.20;73.40
19258;DHT22;9763;48.780;9.212;2023-07-31T01:03:10;20.20;73.40
19258;DHT22;9763;48.780;9.212;2023-07-31T01:06:38;20.20;73.40
19258;DHT22;9763;48.780;9.212;2023-07-31T01:10:13;20.40;73.50
19258;DHT22;9763;48.780;9.212;2023-07-31T01:13:41;20.10;73.20
19258;DHT22;9763;48.780;9.212;2023-07-31T01:17:07;20.10;73.50
19258;DHT22;9763;48.780;9.212;2023-07-31T01:20:32;20.10;73.30
19258;DHT22;9763;48.780;9.212;2023-07-31T01:24:22;20.10;73.40
19258;DHT22;9763;48.780;9.212;2023-07-31T01:27:57;20.00;72.80
19258;DHT22;9763;48.780;9.212;2023-07-31T01:31:24;20.00;73.30
19258;DHT22;9763;48.780;9.212;2023-07-31T01:34:50;19.90;73.60
19258;DHT22;9763;48.780;9.212;2023-07-31T01:38:15;19.80;73.60
19258;DHT22;9763;48.780;9.212;2023-07-31T01:41:43;19.80;73.50
19258;DHT22;9763;48.780;9.212;2023-07-31T01:45:09;19.70;73.70
19258;DHT22;9763;48.780;9.212;2023-07-31T01:48:33;19.70;73.70
19258;DHT22;9763;48.780;9.212;2023-07-31T01:51:58;19.70;74.10
19258;DHT22;9763;48.780;9.212;2023-07-31T01:55:22;19.60;74.00
19258;DHT22;9763;48.780;9.212;2023-07-31T01:58:46;19.60;74.20
19258;DHT22;9763;48.780;9.212;2023-07-31T02:02:10;19.60;74.10
19258;DHT22;9763;48.780;9.212;2023-07-31T02:05:34;19.60;74.10
19258;DHT22;9763;48.780;9.212;2023-07-31T02:08:58;19.60;74.30
19258;DHT22;9763;48.780;9.212;2023-07-31T02:12:21;19.60;74.30
19258;DHT22;9763;48.780;9.212;2023-07-31T02:15:45;19.60;74.50
19258;DHT22;9763;48.780;9.212;2023-07-31T02:19:10;19.60;74.50
19258;DHT22;9763;48.780;9.212;2023-07-31T02:22:34;19.60;74.50
19258;DHT22;9763;48.780;9.212;2023-07-31T02:25:57;19.60;74.60
19258;DHT22;9763;48.780;9.212;2023-07-31T02:29:21;19.60;74.40
19258;DHT22;9763;48.780;9.212;2023-07-31T02:32:44;19.60;74.60
19258;DHT22;9763;48.780;9.212;2023-07-31T02:36:09;19.70;74.80
19258;DHT22;9763;48.780;9.212;2023-07-31T02:39:33;19.70;74.70
19258;DHT22;9763;48.780;9.212;2023-07-31T02:42:56;19.70;74.90
19258;DHT22;9763;48.780;9.212;2023-07-31T02:46:21;19.70;74.80
19258;DHT22;9763;48.780;9.212;2023-07-31T02:49:46;19.70;74.80
19258;DHT22;9763;48.780;9.212;2023-07-31T02:53:13;19.70;74.80
19258;DHT22;9763;48.780;9.212;2023-07-31T02:56:37;19.70;74.80
19258;DHT22;9763;48.780;9.212;2023-07-31T03:00:01;19.70;74.60
19258;DHT22;9763;48.780;9.212;2023-07-31T03:03:28;19.80;74.70
19258;DHT22;9763;48.780;9.212;2023-07-31T03:06:51;19.70;74.50
19258;DHT22;9763;48.780;9.212;2023-07-31T03:10:17;19.70;74.50
19258;DHT22;9763;48.780;9.212;2023-07-31T03:13:40;19.70;73.90
19258;DHT22;9763;48.780;9.212;2023-07-31T03:17:04;19.70;74.10
19258;DHT22;9763;48.780;9.212;2023-07-31T03:20:28;19.70;74.10
19258;DHT22;9763;48.780;9.212;2023-07-31T03:23:51;19.60;74.00
19258;DHT22;9763;48.780;9.212;2023-07-31T03:27:16;19.60;73.70
19258;DHT22;9763;48.780;9.212;2023-07-31T03:30:40;19.50;73.60
19258;DHT22;9763;48.780;9.212;2023-07-31T03:34:03;19.50;73.90
19258;DHT22;9763;48.780;9.212;2023-07-31T03:37:27;19.50;74.00
19258;DHT22;9763;48.780;9.212;2023-07-31T03:40:51;19.40;74.10
19258;DHT22;9763;48.780;9.212;2023-07-31T03:44:16;19.40;74.20
19258;DHT22;9763;48.780;9.212;2023-07-31T03:47:40;19.40;74.40
19258;DHT22;9763;48.780;9.212;2023-07-31T03:51:03;19.40;74.50
19258;DHT22;9763;48.780;9.212;2023-07-31T03:54:27;19.40;74.50
19258;DHT22;9763;48.780;9.212;2023-07-31T03:57:50;19.40;74.60
19258;DHT22;9763;48.780;9.212;2023-07-31T04:01:15;19.40;74.60
19258;DHT22;9763;48.780;9.212;2023-07-31T04:04:40;19.40;74.60
19258;DHT22;9763;48.780;9.212;2023-07-31T04:08:03;19.50;74.70
19258;DHT22;9763;48.780;9.212;2023-07-31T04:11:27;19.50;74.70
19258;DHT22;9763;48.780;9.212;2023-07-31T04:14:51;19.40;74.80
19258;DHT22;9763;48.780;9.212;2023-07-31T04:18:16;19.50;75.40
19258;DHT22;9763;48.780;9.212;2023-07-31T04:21:39;19.60;75.60
19258;DHT22;9763;48.780;9.212;2023-07-31T04:25:03;19.60;75.70
19258;DHT22;9763;48.780;9.212;2023-07-31T04:28:27;19.70;75.70
19258;DHT22;9763;48.780;9.212;2023-07-31T04:31:53;19.80;75.60
19258;DHT22;9763;48.780;9.212;2023-07-31T04:35:18;19.90;75.60
19258;DHT22;9763;48.780;9.212;2023-07-31T04:38:42;19.90;75.10
19258;DHT22;9763;48.780;9.212;2023-07-31T04:42:06;20.00;75.30
19258;DHT22;9763;48.780;9.212;2023-07-31T04:45:29;20.20;75.60
19258;DHT22;9763;48.780;9.212;2023-07-31T04:48:53;20.20;76.00
19258;DHT22;9763;48.780;9.212;2023-07-31T04:52:18;20.20;75.90
19258;DHT22;9763;48.780;9.212;2023-07-31T04:55:41;20.40;76.20
19258;DHT22;9763;48.780;9.212;2023-07-31T04:59:05;20.40;76.70
19258;DHT22;9763;48.780;9.212;2023-07-31T05:02:28;20.50;76.70
19258;DHT22;9763;48.780;9.212;2023-07-31T05:05:52;20.70;76.40
19258;DHT22;9763;48.780;9.212;2023-07-31T05:09:17;20.80;75.90
19258;DHT22;9763;48.780;9.212;2023-07-31T05:12:41;20.90;75.50
19258;DHT22;9763;48.780;9.212;2023-07-31T05:16:04;21.00;75.50
19258;DHT22;9763;48.780;9.212;2023-07-31T05:19:28;20.90;75.00
19258;DHT22;9763;48.780;9.212;2023-07-31T05:22:51;20.90;75.10
19258;DHT22;9763;48.780;9.212;2023-07-31T05:26:16;20.90;75.00
19258;DHT22;9763;48.780;9.212;2023-07-31T05:29:40;20.90;74.50
19258;DHT22;9763;48.780;9.212;2023-07-31T05:33:04;20.90;74.80
19258;DHT22;9763;48.780;9.212;2023-07-31T05:36:28;20.90;75.10
19258;DHT22;9763;48.780;9.212;2023-07-31T05:39:51;20.90;75.70
19258;DHT22;9763;48.780;9.212;2023-07-31T05:43:16;21.00;76.80
19258;DHT22;9763;48.780;9.212;2023-07-31T05:46:40;21.30;77.60
19258;DHT22;9763;48.780;9.212;2023-07-31T05:50:05;21.50;78.10
19258;DHT22;9763;48.780;9.212;2023-07-31T05:53:28;21.80;78.30
19258;DHT22;9763;48.780;9.212;2023-07-31T05:56:52;22.10;78.00
19258;DHT22;9763;48.780;9.212;2023-07-31T06:00:17;22.30;78.20
19258;DHT22;9763;48.780;9.212;2023-07-31T06:03:41;22.50;77.30
19258;DHT22;9763;48.780;9.212;2023-07-31T06:07:05;22.70;76.50
19258;DHT22;9763;48.780;9.212;2023-07-31T06:10:28;22.80;75.80
19258;DHT22;9763;48.780;9.212;2023-07-31T06:13:52;22.80;75.50
19258;DHT22;9763;48.780;9.212;2023-07-31T06:17:17;22.80;75.50
19258;DHT22;9763;48.780;9.212;2023-07-31T06:20:41;22.80;76.00
19258;DHT22;9763;48.780;9.212;2023-07-31T06:24:05;23.00;78.00
19258;DHT22;9763;48.780;9.212;2023-07-31T06:27:29;23.30;80.20
19258;DHT22;9763;48.780;9.212;2023-07-31T06:30:53;23.80;81.00
19258;DHT22;9763;48.780;9.212;2023-07-31T06:34:18;24.60;81.20
19258;DHT22;9763;48.780;9.212;2023-07-31T06:37:41;24.90;81.80
19258;DHT22;9763;48.780;9.212;2023-07-31T06:41:06;25.50;81.20
19258;DHT22;9763;48.780;9.212;2023-07-31T06:44:30;25.90;79.30
19258;DHT22;9763;48.780;9.212;2023-07-31T06:47:53;26.30;77.60
19258;DHT22;9763;48.780;9.212;2023-07-31T06:51:18;26.60;77.40
19258;DHT22;9763;48.780;9.212;2023-07-31T06:54:42;25.00;75.40
19258;DHT22;9763;48.780;9.212;2023-07-31T06:58:05;27.20;77.20
19258;DHT22;9763;48.780;9.212;2023-07-31T07:01:29;27.50;74.90
19258;DHT22;9763;48.780;9.212;2023-07-31T07:04:53;27.70;74.70
19258;DHT22;9763;48.780;9.212;2023-07-31T07:08:18;27.80;74.20
19258;DHT22;9763;48.780;9.212;2023-07-31T07:11:42;28.00;72.60
19258;DHT22;9763;48.780;9.212;2023-07-31T07:15:06;28.10;72.60
19258;DHT22;9763;48.780;9.212;2023-07-31T07:18:30;28.10;71.80
19258;DHT22;9763;48.780;9.212;2023-07-31T07:21:54;28.10;70.90
19258;DHT22;9763;48.780;9.212;2023-07-31T07:25:19;28.00;68.40
19258;DHT22;9763;48.780;9.212;2023-07-31T07:28:43;27.80;67.10
19258;DHT22;9763;48.780;9.212;2023-07-31T07:32:07;27.50;68.20
19258;DHT22;9763;48.780;9.212;2023-07-31T07:35:33;27.30;68.60
19258;DHT22;9763;48.780;9.212;2023-07-31T07:38:57;27.20;68.70
19258;DHT22;9763;48.780;9.212;2023-07-31T07:42:22;27.20;68.10
19258;DHT22;9763;48.780;9.212;2023-07-31T07:45:45;27.10;67.30
19258;DHT22;9763;48.780;9.212;2023-07-31T07:49:09;26.90;68.20
19258;DHT22;9763;48.780;9.212;2023-07-31T07:52:32;26.80;68.80
19258;DHT22;9763;48.780;9.212;2023-07-31T07:55:56;26.80;69.70
19258;DHT22;9763;48.780;9.212;2023-07-31T07:59:21;26.90;71.90
19258;DHT22;9763;48.780;9.212;2023-07-31T08:02:44;27.20;70.80
19258;DHT22;9763;48.780;9.212;2023-07-31T08:06:09;27.50;71.20
19258;DHT22;9763;48.780;9.212;2023-07-31T08:09:33;27.80;73.10
19258;DHT22;9763;48.780;9.212;2023-07-31T08:12:56;28.20;73.20
19258;DHT22;9763;48.780;9.212;2023-07-31T08:16:21;28.70;74.30
19258;DHT22;9763;48.780;9.212;2023-07-31T08:19:45;29.20;72.20
19258;DHT22;9763;48.780;9.212;2023-07-31T08:23:09;29.50;71.20
19258;DHT22;9763;48.780;9.212;2023-07-31T08:26:33;29.90;72.40
19258;DHT22;9763;48.780;9.212;2023-07-31T08:29:56;30.30;73.20
19258;DHT22;9763;48.780;9.212;2023-07-31T08:33:21;30.80;71.90
19258;DHT22;9763;48.780;9.212;2023-07-31T08:36:45;31.20;71.00
19258;DHT22;9763;48.780;9.212;2023-07-31T08:40:09;31.50;69.70
19258;DHT22;9763;48.780;9.212;2023-07-31T08:43:36;31.70;67.30
19258;DHT22;9763;48.780;9.212;2023-07-31T08:47:01;31.60;62.90
19258;DHT22;9763;48.780;9.212;2023-07-31T08:50:26;31.50;64.10
19258;DHT22;9763;48.780;9.212;2023-07-31T08:53:50;31.20;61.50
19258;DHT22;9763;48.780;9.212;2023-07-31T08:57:17;31.00;62.30
19258;DHT22;9763;48.780;9.212;2023-07-31T09:00:41;30.70;61.20
19258;DHT22;9763;48.780;9.212;2023-07-31T09:04:08;30.50;63.10
19258;DHT22;9763;48.780;9.212;2023-07-31T09:07:35;30.40;62.10
19258;DHT22;9763;48.780;9.212;2023-07-31T09:10:59;30.40;62.20
19258;DHT22;9763;48.780;9.212;2023-07-31T09:14:26;30.40;63.90
19258;DHT22;9763;48.780;9.212;2023-07-31T09:17:58;30.60;67.00
19258;DHT22;9763;48.780;9.212;2023-07-31T09:21:23;31.00;64.40
19258;DHT22;9763;48.780;9.212;2023-07-31T09:24:51;31.50;68.80
19258;DHT22;9763;48.780;9.212;2023-07-31T09:28:14;32.00;65.80
19258;DHT22;9763;48.780;9.212;2023-07-31T09:31:40;32.20;62.90
19258;DHT22;9763;48.780;9.212;2023-07-31T09:35:13;32.30;61.20
19258;DHT22;9763;48.780;9.212;2023-07-31T09:38:43;32.20;57.60
19258;DHT22;9763;48.780;9.212;2023-07-31T09:42:09;32.10;59.50
19258;DHT22;9763;48.780;9.212;2023-07-31T09:45:35;31.90;58.10
19258;DHT22;9763;48.780;9.212;2023-07-31T09:49:04;31.60;57.90
19258;DHT22;9763;48.780;9.212;2023-07-31T09:52:29;31.20;57.60
19258;DHT22;9763;48.780;9.212;2023-07-31T09:55:53;30.80;57.90
19258;DHT22;9763;48.780;9.212;2023-07-31T09:59:19;30.50;59.40
19258;DHT22;9763;48.780;9.212;2023-07-31T10:02:46;30.40;60.30
19258;DHT22;9763;48.780;9.212;2023-07-31T10:06:10;30.60;64.00
19258;DHT22;9763;48.780;9.212;2023-07-31T10:09:35;30.90;63.90
19258;DHT22;9763;48.780;9.212;2023-07-31T10:13:00;31.10;61.30
19258;DHT22;9763;48.780;9.212;2023-07-31T10:16:26;31.20;60.30
19258;DHT22;9763;48.780;9.212;2023-07-31T10:19:50;31.40;60.80
19258;DHT22;9763;48.780;9.212;2023-07-31T10:23:15;31.50;59.10
19258;DHT22;9763;48.780;9.212;2023-07-31T10:26:39;31.70;59.20
19258;DHT22;9763;48.780;9.212;2023-07-31T10:30:09;31.70;58.50
19258;DHT22;9763;48.780;9.212;2023-07-31T10:33:39;31.70;56.60
19258;DHT22;9763;48.780;9.212;2023-07-31T10:37:23;31.50;56.70
19258;DHT22;9763;48.780;9.212;2023-07-31T10:40:49;31.40;54.60
19258;DHT22;9763;48.780;9.212;2023-07-31T10:44:13;31.40;57.20
19258;DHT22;9763;48.780;9.212;2023-07-31T10:47:43;31.30;56.80
19258;DHT22;9763;48.780;9.212;2023-07-31T10:51:11;31.30;57.00
19258;DHT22;9763;48.780;9.212;2023-07-31T10:54:35;31.30;57.00
19258;DHT22;9763;48.780;9.212;2023-07-31T10:58:06;32.30;58.30
19258;DHT22;9763;48.780;9.212;2023-07-31T11:01:52;31.30;54.80
19258;DHT22;9763;48.780;9.212;2023-07-31T11:05:17;31.10;53.90
19258;DHT22;9763;48.780;9.212;2023-07-31T11:08:44;31.00;55.70
19258;DHT22;9763;48.780;9.212;2023-07-31T11:12:08;31.00;56.50
19258;DHT22;9763;48.780;9.212;2023-07-31T11:15:32;31.10;57.50
19258;DHT22;9763;48.780;9.212;2023-07-31T11:18:56;31.30;57.30
19258;DHT22;9763;48.780;9.212;2023-07-31T11:22:20;31.40;56.60
19258;DHT22;9763;48.780;9.212;2023-07-31T11:25:45;31.40;55.40
19258;DHT22;9763;48.780;9.212;2023-07-31T11:29:11;31.20;54.60
19258;DHT22;9763;48.780;9.212;2023-07-31T11:32:36;30.90;54.20
19258;DHT22;9763;48.780;9.212;2023-07-31T11:36:00;30.70;54.00
19258;DHT22;9763;48.780;9.212;2023-07-31T11:39:24;30.30;54.00
19258;DHT22;9763;48.780;9.212;2023-07-31T11:42:50;30.00;54.50
19258;DHT22;9763;48.780;9.212;2023-07-31T11:46:14;29.30;53.50
19258;DHT22;9763;48.780;9.212;2023-07-31T11:49:38;29.40;54.40
19258;DHT22;9763;48.780;9.212;2023-07-31T11:53:07;29.10;54.80
19258;DHT22;9763;48.780;9.212;2023-07-31T11:56:32;28.90;55.20
19258;DHT22;9763;48.780;9.212;2023-07-31T11:59:57;28.70;56.40
19258;DHT22;9763;48.780;9.212;2023-07-31T12:03:21;28.70;56.60
19258;DHT22;9763;48.780;9.212;2023-07-31T12:06:45;28.70;56.80
19258;DHT22;9763;48.780;9.212;2023-07-31T12:10:09;28.70;57.40
19258;DHT22;9763;48.780;9.212;2023-07-31T12:13:33;28.70;57.80
19258;DHT22;9763;48.780;9.212;2023-07-31T12:17:01;28.70;58.00
19258;DHT22;9763;48.780;9.212;2023-07-31T12:20:30;28.80;58.30
19258;DHT22;9763;48.780;9.212;2023-07-31T12:23:55;28.90;57.80
19258;DHT22;9763;48.780;9.212;2023-07-31T12:27:19;28.90;56.50
19258;DHT22;9763;48.780;9.212;2023-07-31T12:30:45;28.80;56.70
19258;DHT22;9763;48.780;9.212;2023-07-31T12:34:17;28.70;56.80
19258;DHT22;9763;48.780;9.212;2023-07-31T12:37:43;28.60;56.20
19258;DHT22;9763;48.780;9.212;2023-07-31T12:41:06;28.50;56.90
19258;DHT22;9763;48.780;9.212;2023-07-31T12:44:30;28.40;56.80
19258;DHT22;9763;48.780;9.212;2023-07-31T12:47:54;28.30;57.10
19258;DHT22;9763;48.780;9.212;2023-07-31T12:51:19;28.20;57.00
19258;DHT22;9763;48.780;9.212;2023-07-31T12:54:43;28.10;56.60
19258;DHT22;9763;48.780;9.212;2023-07-31T12:58:06;27.90;56.40
19258;DHT22;9763;48.780;9.212;2023-07-31T13:01:30;27.80;55.90
19258;DHT22;9763;48.780;9.212;2023-07-31T13:04:54;27.60;56.00
19258;DHT22;9763;48.780;9.212;2023-07-31T13:08:19;27.50;56.80
19258;DHT22;9763;48.780;9.212;2023-07-31T13:11:43;27.40;57.20
19258;DHT22;9763;48.780;9.212;2023-07-31T13:15:07;27.40;57.60
19258;DHT22;9763;48.780;9.212;2023-07-31T13:18:31;27.30;57.50
19258;DHT22;9763;48.780;9.212;2023-07-31T13:21:55;27.30;57.70
19258;DHT22;9763;48.780;9.212;2023-07-31T13:25:20;27.30;58.20
19258;DHT22;9763;48.780;9.212;2023-07-31T13:28:43;27.30;58.50
19258;DHT22;9763;48.780;9.212;2023-07-31T13:32:07;27.40;58.90
19258;DHT22;9763;48.780;9.212;2023-07-31T13:35:31;27.50;59.00
19258;DHT22;9763;48.780;9.212;2023-07-31T13:38:54;27.60;59.30
19258;DHT22;9763;48.780;9.212;2023-07-31T13:42:19;27.70;58.50
19258;DHT22;9763;48.780;9.212;2023-07-31T13:45:44;27.80;58.20
19258;DHT22;9763;48.780;9.212;2023-07-31T13:49:07;27.90;57.80
19258;DHT22;9763;48.780;9.212;2023-07-31T13:52:31;27.90;57.30
19258;DHT22;9763;48.780;9.212;2023-07-31T13:55:55;27.90;57.50
19258;DHT22;9763;48.780;9.212;2023-07-31T13:59:20;27.90;57.40
19258;DHT22;9763;48.780;9.212;2023-07-31T14:02:44;27.90;57.30
19258;DHT22;9763;48.780;9.212;2023-07-31T14:06:07;27.90;57.90
19258;DHT22;9763;48.780;9.212;2023-07-31T14:09:31;27.90;58.20
19258;DHT22;9763;48.780;9.212;2023-07-31T14:12:55;27.90;57.40
19258;DHT22;9763;48.780;9.212;2023-07-31T14:16:20;28.00;57.20
19258;DHT22;9763;48.780;9.212;2023-07-31T14:19:44;27.90;56.90
19258;DHT22;9763;48.780;9.212;2023-07-31T14:23:08;27.90;57.10
19258;DHT22;9763;48.780;9.212;2023-07-31T14:26:31;27.80;57.40
19258;DHT22;9763;48.780;9.212;2023-07-31T14:29:55;27.80;57.80
19258;DHT22;9763;48.780;9.212;2023-07-31T14:33:20;27.80;58.20
19258;DHT22;9763;48.780;9.212;2023-07-31T14:36:44;27.90;58.20
19258;DHT22;9763;48.780;9.212;2023-07-31T14:40:10;27.90;58.50
19258;DHT22;9763;48.780;9.212;2023-07-31T14:43:35;27.90;58.00
19258;DHT22;9763;48.780;9.212;2023-07-31T14:46:58;28.00;58.20
19258;DHT22;9763;48.780;9.212;2023-07-31T14:50:25;28.00;58.10
19258;DHT22;9763;48.780;9.212;2023-07-31T14:53:49;28.00;57.90
19258;DHT22;9763;48.780;9.212;2023-07-31T14:57:12;28.00;58.50
19258;DHT22;9763;48.780;9.212;2023-07-31T15:00:36;28.00;58.10
19258;DHT22;9763;48.780;9.212;2023-07-31T15:03:59;28.00;58.20
19258;DHT22;9763;48.780;9.212;2023-07-31T15:07:25;28.00;57.60
19258;DHT22;9763;48.780;9.212;2023-07-31T15:10:49;28.00;57.60
19258;DHT22;9763;48.780;9.212;2023-07-31T15:14:17;28.00;58.00
19258;DHT22;9763;48.780;9.212;2023-07-31T15:17:41;28.10;58.40
19258;DHT22;9763;48.780;9.212;2023-07-31T15:21:04;28.10;58.20
19258;DHT22;9763;48.780;9.212;2023-07-31T15:24:31;28.20;58.30
19258;DHT22;9763;48.780;9.212;2023-07-31T15:27:54;28.20;58.30
19258;DHT22;9763;48.780;9.212;2023-07-31T15:31:18;28.30;57.60
19258;DHT22;9763;48.780;9.212;2023-07-31T15:34:42;28.30;57.70
19258;DHT22;9763;48.780;9.212;2023-07-31T15:38:05;28.30;56.80
19258;DHT22;9763;48.780;9.212;2023-07-31T15:41:30;28.30;56.70
19258;DHT22;9763;48.780;9.212;2023-07-31T15:44:54;28.30;56.60
19258;DHT22;9763;48.780;9.212;2023-07-31T15:48:17;28.20;56.30
19258;DHT22;9763;48.780;9.212;2023-07-31T15:51:41;28.10;56.50
19258;DHT22;9763;48.780;9.212;2023-07-31T15:55:05;28.10;56.90
19258;DHT22;9763;48.780;9.212;2023-07-31T15:58:31;28.00;56.80
19258;DHT22;9763;48.780;9.212;2023-07-31T16:01:54;27.90;56.60
19258;DHT22;9763;48.780;9.212;2023-07-31T16:05:18;27.90;56.70
19258;DHT22;9763;48.780;9.212;2023-07-31T16:08:41;27.90;56.90
19258;DHT22;9763;48.780;9.212;2023-07-31T16:12:05;27.80;56.90
19258;DHT22;9763;48.780;9.212;2023-07-31T16:15:33;27.70;57.10
19258;DHT22;9763;48.780;9.212;2023-07-31T16:18:56;27.70;56.70
19258;DHT22;9763;48.780;9.212;2023-07-31T16:22:20;27.70;57.20
19258;DHT22;9763;48.780;9.212;2023-07-31T16:25:43;27.70;57.40
19258;DHT22;9763;48.780;9.212;2023-07-31T16:29:07;27.60;56.60
19258;DHT22;9763;48.780;9.212;2023-07-31T16:32:32;27.50;56.20
19258;DHT22;9763;48.780;9.212;2023-07-31T16:35:56;27.50;56.30
19258;DHT22;9763;48.780;9.212;2023-07-31T16:39:19;27.40;56.50
19258;DHT22;9763;48.780;9.212;2023-07-31T16:42:44;27.30;56.50
19258;DHT22;9763;48.780;9.212;2023-07-31T16:46:08;27.30;57.00
19258;DHT22;9763;48.780;9.212;2023-07-31T16:49:33;27.20;57.10
19258;DHT22;9763;48.780;9.212;2023-07-31T16:52:57;27.20;57.10
19258;DHT22;9763;48.780;9.212;2023-07-31T16:56:20;27.20;56.90
19258;DHT22;9763;48.780;9.212;2023-07-31T16:59:44;27.10;56.80
19258;DHT22;9763;48.780;9.212;2023-07-31T17:03:07;27.00;56.90
19258;DHT22;9763;48.780;9.212;2023-07-31T17:06:32;27.00;57.10
19258;DHT22;9763;48.780;9.212;2023-07-31T17:09:57;26.90;56.70
19258;DHT22;9763;48.780;9.212;2023-07-31T17:13:21;26.80;57.10
19258;DHT22;9763;48.780;9.212;2023-07-31T17:16:45;26.70;57.30
19258;DHT22;9763;48.780;9.212;2023-07-31T17:20:09;26.70;57.50
19258;DHT22;9763;48.780;9.212;2023-07-31T17:23:34;26.60;57.30
19258;DHT22;9763;48.780;9.212;2023-07-31T17:26:58;26.50;57.40
19258;DHT22;9763;48.780;9.212;2023-07-31T17:30:22;26.50;57.40
19258;DHT22;9763;48.780;9.212;2023-07-31T17:33:45;26.40;57.40
19258;DHT22;9763;48.780;9.212;2023-07-31T17:37:09;26.30;57.40
19258;DHT22;9763;48.780;9.212;2023-07-31T17:40:34;26.30;57.60
19258;DHT22;9763;48.780;9.212;2023-07-31T17:43:57;26.20;57.80
19258;DHT22;9763;48.780;9.212;2023-07-31T17:47:21;26.20;58.10
19258;DHT22;9763;48.780;9.212;2023-07-31T17:50:49;26.20;58.30
19258;DHT22;9763;48.780;9.212;2023-07-31T17:54:13;26.10;57.90
19258;DHT22;9763;48.780;9.212;2023-07-31T17:57:38;26.10;58.30
19258;DHT22;9763;48.780;9.212;2023-07-31T18:01:02;26.10;58.40
19258;DHT22;9763;48.780;9.212;2023-07-31T18:04:26;26.00;58.70
19258;DHT22;9763;48.780;9.212;2023-07-31T18:07:49;26.00;58.80
19258;DHT22;9763;48.780;9.212;2023-07-31T18:11:13;26.00;58.90
19258;DHT22;9763;48.780;9.212;2023-07-31T18:14:38;26.00;59.00
19258;DHT22;9763;48.780;9.212;2023-07-31T18:18:02;26.00;59.10
19258;DHT22;9763;48.780;9.212;2023-07-31T18:21:26;26.00;59.30
19258;DHT22;9763;48.780;9.212;2023-07-31T18:24:49;25.90;59.40
19258;DHT22;9763;48.780;9.212;2023-07-31T18:28:13;25.90;59.40
19258;DHT22;9763;48.780;9.212;2023-07-31T18:31:38;25.90;59.40
19258;DHT22;9763;48.780;9.212;2023-07-31T18:35:02;25.90;59.40
19258;DHT22;9763;48.780;9.212;2023-07-31T18:38:26;25.90;59.60
19258;DHT22;9763;48.780;9.212;2023-07-31T18:41:54;25.80;59.70
19258;DHT22;9763;48.780;9.212;2023-07-31T18:45:17;25.70;59.80
19258;DHT22;9763;48.780;9.212;2023-07-31T18:48:45;25.70;60.10
19258;DHT22;9763;48.780;9.212;2023-07-31T18:52:11;25.70;60.50
19258;DHT22;9763;48.780;9.212;2023-07-31T18:55:34;25.60;60.60
19258;DHT22;9763;48.780;9.212;2023-07-31T18:58:58;25.50;61.00
19258;DHT22;9763;48.780;9.212;2023-07-31T19:02:23;25.40;61.40
19258;DHT22;9763;48.780;9.212;2023-07-31T19:05:49;25.30;62.30
19258;DHT22;9763;48.780;9.212;2023-07-31T19:09:13;25.20;63.60
19258;DHT22;9763;48.780;9.212;2023-07-31T19:12:36;25.10;64.80
19258;DHT22;9763;48.780;9.212;2023-07-31T19:16:00;24.90;65.20
19258;DHT22;9763;48.780;9.212;2023-07-31T19:19:24;24.70;65.80
19258;DHT22;9763;48.780;9.212;2023-07-31T19:22:48;24.50;66.60
19258;DHT22;9763;48.780;9.212;2023-07-31T19:26:12;24.30;67.00
19258;DHT22;9763;48.780;9.212;2023-07-31T19:29:36;24.10;67.60
19258;DHT22;9763;48.780;9.212;2023-07-31T19:33:00;23.90;68.20
19258;DHT22;9763;48.780;9.212;2023-07-31T19:36:24;23.80;68.90
19258;DHT22;9763;48.780;9.212;2023-07-31T19:39:49;23.60;69.60
19258;DHT22;9763;48.780;9.212;2023-07-31T19:43:14;23.40;69.90
19258;DHT22;9763;48.780;9.212;2023-07-31T19:46:38;23.30;70.60
19258;DHT22;9763;48.780;9.212;2023-07-31T19:50:03;23.10;71.20
19258;DHT22;9763;48.780;9.212;2023-07-31T19:53:28;23.00;72.10
19258;DHT22;9763;48.780;9.212;2023-07-31T19:56:53;22.90;72.90
19258;DHT22;9763;48.780;9.212;2023-07-31T20:00:19;22.80;73.40
19258;DHT22;9763;48.780;9.212;2023-07-31T20:03:43;22.70;74.10
19258;DHT22;9763;48.780;9.212;2023-07-31T20:07:07;22.60;74.90
19258;DHT22;9763;48.780;9.212;2023-07-31T20:10:31;22.60;75.50
19258;DHT22;9763;48.780;9.212;2023-07-31T20:13:56;22.50;75.90
19258;DHT22;9763;48.780;9.212;2023-07-31T20:17:21;22.40;76.30
19258;DHT22;9763;48.780;9.212;2023-07-31T20:20:45;22.30;76.80
19258;DHT22;9763;48.780;9.212;2023-07-31T20:24:09;22.30;77.60
19258;DHT22;9763;48.780;9.212;2023-07-31T20:27:33;22.20;77.90
19258;DHT22;9763;48.780;9.212;2023-07-31T20:30:59;22.20;78.40
19258;DHT22;9763;48.780;9.212;2023-07-31T20:34:22;22.10;78.60
19258;DHT22;9763;48.780;9.212;2023-07-31T20:37:46;22.00;79.00
19258;DHT22;9763;48.780;9.212;2023-07-31T20:41:10;22.00;79.70
19258;DHT22;9763;48.780;9.212;2023-07-31T20:44:34;22.00;80.00
19258;DHT22;9763;48.780;9.212;2023-07-31T20:48:00;22.00;80.30
19258;DHT22;9763;48.780;9.212;2023-07-31T20:51:24;22.00;80.60
19258;DHT22;9763;48.780;9.212;2023-07-31T20:54:48;21.90;81.00
19258;DHT22;9763;48.780;9.212;2023-07-31T20:58:14;21.90;81.50
19258;DHT22;9763;48.780;9.212;2023-07-31T21:01:38;22.00;82.10
19258;DHT22;9763;48.780;9.212;2023-07-31T21:05:03;22.00;82.30
19258;DHT22;9763;48.780;9.212;2023-07-31T21:08:27;22.00;82.50
19258;DHT22;9763;48.780;9.212;2023-07-31T21:11:51;22.00;82.50
19258;DHT22;9763;48.780;9.212;2023-07-31T21:15:15;22.00;83.00
19258;DHT22;9763;48.780;9.212;2023-07-31T21:18:42;22.00;83.30
19258;DHT22;9763;48.780;9.212;2023-07-31T21:22:07;22.00;83.60
19258;DHT22;9763;48.780;9.212;2023-07-31T21:25:33;22.10;83.80
19258;DHT22;9763;48.780;9.212;2023-07-31T21:28:59;22.00;84.00
19258;DHT22;9763;48.780;9.212;2023-07-31T21:32:23;22.10;84.30
19258;DHT22;9763;48.780;9.212;2023-07-31T21:35:47;22.00;84.20
19258;DHT22;9763;48.780;9.212;2023-07-31T21:39:18;22.10;84.50
19258;DHT22;9763;48.780;9.212;2023-07-31T21:42:42;22.30;84.50
19258;DHT22;9763;48.780;9.212;2023-07-31T21:46:05;22.10;84.20
19258;DHT22;9763;48.780;9.212;2023-07-31T21:49:29;22.00;84.30
19258;DHT22;9763;48.780;9.212;2023-07-31T21:52:53;22.00;84.70